createdAt,value
2023-05-10T00:02:32.436Z,96137.22
2023-05-10T00:05:17.972Z,96141.81
2023-05-10T00:08:03.364Z,96141.19
2023-05-10T00:10:48.576Z,96136.91
2023-05-10T00:13:34.385Z,96133.63
2023-05-10T00:16:19.349Z,96138.53
2023-05-10T00:19:04.724Z,96130.03
2023-05-10T00:21:50.171Z,96122.00
2023-05-10T00:24:39.780Z,96129.72
2023-05-10T00:27:25.386Z,96128.56
2023-05-10T00:30:11.047Z,96128.09
2023-05-10T00:32:56.131Z,96123.66
2023-05-10T00:35:41.456Z,96121.22
2023-05-10T00:38:26.771Z,96125.28
2023-05-10T00:41:11.986Z,96128.56
2023-05-10T00:43:57.214Z,96118.91
2023-05-10T00:46:42.893Z,96129.22
2023-05-10T00:49:28.640Z,96113.31
2023-05-10T00:52:14.078Z,96126.28
2023-05-10T00:54:59.427Z,96123.50
2023-05-10T00:57:45.571Z,96120.53
2023-05-10T01:00:31.161Z,96127.91
2023-05-10T01:03:16.402Z,96129.38
2023-05-10T01:06:01.421Z,96120.38
2023-05-10T01:08:46.889Z,96122.50
2023-05-10T01:11:31.922Z,96126.09
2023-05-10T01:14:20.852Z,96124.47
2023-05-10T01:17:07.256Z,96126.28
2023-05-10T01:19:52.690Z,96121.53
2023-05-10T01:22:44.899Z,96133.50
2023-05-10T01:25:56.859Z,96127.09
2023-05-10T01:29:00.844Z,96124.13
2023-05-10T01:32:04.179Z,96122.19
2023-05-10T01:35:15.902Z,96117.75
2023-05-10T01:38:10.680Z,96125.09
2023-05-10T01:41:13.325Z,96118.88
2023-05-10T01:44:14.448Z,96108.72
2023-05-10T01:47:23.545Z,96114.63
2023-05-10T01:50:16.868Z,96111.00
2023-05-10T01:53:05.905Z,96110.00
2023-05-10T01:55:54.785Z,96110.34
2023-05-10T01:58:45.297Z,96110.97
2023-05-10T02:01:30.924Z,96105.75
2023-05-10T02:04:18.510Z,96105.75
2023-05-10T02:07:04.810Z,96104.09
2023-05-10T02:09:51.595Z,96092.00
2023-05-10T02:12:40.374Z,96101.63
2023-05-10T02:15:27.509Z,96105.72
2023-05-10T02:18:14.680Z,96097.84
2023-05-10T02:21:01.215Z,96097.34
2023-05-10T02:23:47.574Z,96097.22
2023-05-10T02:26:35.336Z,96093.25
2023-05-10T02:29:21.365Z,96089.31
2023-05-10T02:32:07.358Z,96090.31
2023-05-10T02:34:54.038Z,96090.31
2023-05-10T02:37:40.840Z,96101.75
2023-05-10T02:40:28.953Z,96094.38
2023-05-10T02:43:18.136Z,96089.66
2023-05-10T02:46:03.633Z,96091.94
2023-05-10T02:48:48.741Z,96091.59
2023-05-10T02:51:37.531Z,96089.81
2023-05-10T02:54:30.835Z,96099.78
2023-05-10T02:57:19.539Z,96088.63
2023-05-10T03:00:05.946Z,96087.69
2023-05-10T03:02:51.436Z,96091.44
2023-05-10T03:05:36.756Z,96088.31
2023-05-10T03:08:22.780Z,96097.47
2023-05-10T03:11:35.451Z,96095.47
2023-05-10T03:14:50.098Z,96096.31
2023-05-10T03:17:56.321Z,96094.69
2023-05-10T03:20:49.413Z,96094.84
2023-05-10T03:24:03.752Z,96082.44
2023-05-10T03:26:51.290Z,96087.34
2023-05-10T03:29:38.331Z,96086.69
2023-05-10T03:32:24.229Z,96089.31
2023-05-10T03:35:14.319Z,96081.13
2023-05-10T03:37:59.788Z,96076.88
2023-05-10T03:40:45.186Z,96074.41
2023-05-10T03:43:30.472Z,96082.13
2023-05-10T03:46:15.891Z,96083.75
2023-05-10T03:49:01.077Z,96074.59
2023-05-10T03:51:46.392Z,96063.78
2023-05-10T03:54:31.681Z,96069.03
2023-05-10T03:57:17.058Z,96072.47
2023-05-10T04:00:03.749Z,96074.94
2023-05-10T04:02:49.260Z,96079.84
2023-05-10T04:05:34.439Z,96079.84
2023-05-10T04:08:19.809Z,96083.63
2023-05-10T04:11:13.666Z,96078.91
2023-05-10T04:13:58.609Z,96075.66
2023-05-10T04:16:43.986Z,96081.53
2023-05-10T04:19:32.805Z,96081.22
2023-05-10T04:22:18.630Z,96080.38
2023-05-10T04:25:04.050Z,96082.84
2023-05-10T04:27:49.071Z,96089.91
2023-05-10T04:30:34.515Z,96090.38
2023-05-10T04:33:19.704Z,96087.44
2023-05-10T04:36:23.924Z,96086.78
2023-05-10T04:39:10.743Z,96084.16
2023-05-10T04:41:55.955Z,96084.47
2023-05-10T04:44:41.784Z,96076.63
2023-05-10T04:47:27.045Z,96069.75
2023-05-10T04:50:12.463Z,96074.16
2023-05-10T04:52:57.629Z,96071.84
2023-05-10T04:55:43.253Z,96081.53
2023-05-10T04:58:28.354Z,96076.44
2023-05-10T05:01:13.821Z,96073.97
2023-05-10T05:03:59.417Z,96064.25
2023-05-10T05:06:45.039Z,96069.13
2023-05-10T05:09:30.266Z,96065.69
2023-05-10T05:12:15.816Z,96058.44
2023-05-10T05:15:01.268Z,96059.03
2023-05-10T05:17:46.763Z,96062.94
2023-05-10T05:20:34.412Z,96064.53
2023-05-10T05:23:21.663Z,96055.78
2023-05-10T05:26:06.746Z,96051.97
2023-05-10T05:28:54.888Z,96047.28
2023-05-10T05:31:40.595Z,96053.31
2023-05-10T05:34:26.240Z,96051.28
2023-05-10T05:37:17.809Z,96045.81
2023-05-10T05:40:03.966Z,96055.53
2023-05-10T05:42:49.025Z,96048.47
2023-05-10T05:45:34.138Z,96052.16
2023-05-10T05:48:19.551Z,96057.38
2023-05-10T05:51:06.597Z,96047.56
2023-05-10T05:53:52.747Z,96045.88
2023-05-10T05:56:38.977Z,96042.03
2023-05-10T05:59:24.881Z,96043.31
2023-05-10T06:02:11.319Z,96040.56
2023-05-10T06:04:56.941Z,96048.41
2023-05-10T06:07:45.455Z,96050.97
2023-05-10T06:10:31.578Z,96056.19
2023-05-10T06:13:17.007Z,96059.75
2023-05-10T06:16:04.156Z,96054.56
2023-05-10T06:18:50.149Z,96056.69
2023-05-10T06:21:35.222Z,96049.13
2023-05-10T06:24:22.802Z,96049.81
2023-05-10T06:27:08.012Z,96046.44
2023-05-10T06:30:02.051Z,96049.34
2023-05-10T06:32:50.777Z,96057.94
2023-05-10T06:35:36.188Z,96048.22
2023-05-10T06:38:21.525Z,96048.03
2023-05-10T06:41:06.821Z,96044.19
2023-05-10T06:43:52.507Z,96039.16
2023-05-10T06:46:37.928Z,96045.88
2023-05-10T06:49:23.390Z,96043.88
2023-05-10T06:52:08.749Z,96048.78
2023-05-10T06:54:54.049Z,96041.88
2023-05-10T06:57:39.392Z,96035.38
2023-05-10T07:00:25.062Z,96042.91
2023-05-10T07:03:11.780Z,96040.25
2023-05-10T07:06:04.812Z,96047.16
2023-05-10T07:08:50.316Z,96043.91
2023-05-10T07:11:36.212Z,96037.22
2023-05-10T07:14:21.656Z,96049.03
2023-05-10T07:17:06.924Z,96049.00
2023-05-10T07:19:52.346Z,96050.03
2023-05-10T07:22:37.737Z,96046.50
2023-05-10T07:25:23.050Z,96041.81
2023-05-10T07:28:08.324Z,96041.00
2023-05-10T07:30:53.663Z,96041.78
2023-05-10T07:33:39.087Z,96044.63
2023-05-10T07:36:24.483Z,96045.81
2023-05-10T07:39:09.964Z,96044.97
2023-05-10T07:41:56.844Z,96046.56
2023-05-10T07:44:42.831Z,96035.56
2023-05-10T07:47:27.998Z,96040.44
2023-05-10T07:50:13.374Z,96034.28
2023-05-10T07:52:58.890Z,96030.78
2023-05-10T07:55:44.177Z,96027.69
2023-05-10T07:58:29.366Z,96033.78
2023-05-10T08:01:14.472Z,96028.41
2023-05-10T08:03:59.946Z,96031.56
2023-05-10T08:06:45.095Z,96031.31
2023-05-10T08:09:30.542Z,96024.53
2023-05-10T08:12:15.817Z,96029.84
2023-05-10T08:15:01.167Z,96022.84
2023-05-10T08:17:46.687Z,96017.88
2023-05-10T08:20:32.325Z,96015.75
2023-05-10T08:23:17.484Z,96016.50
2023-05-10T08:26:02.912Z,96026.03
2023-05-10T08:28:48.411Z,96026.53
2023-05-10T08:31:33.762Z,96027.47
2023-05-10T08:34:18.952Z,96030.06
2023-05-10T08:37:04.792Z,96025.50
2023-05-10T08:39:50.041Z,96034.63
2023-05-10T08:42:38.808Z,96031.44
2023-05-10T08:45:25.641Z,96037.28
2023-05-10T08:48:12.242Z,96039.44
2023-05-10T08:51:00.696Z,96044.31
2023-05-10T08:53:47.241Z,96048.00
2023-05-10T08:56:32.678Z,96054.19
2023-05-10T08:59:18.100Z,96045.63
2023-05-10T09:02:05.810Z,96041.81
2023-05-10T09:04:51.165Z,96042.81
2023-05-10T09:07:37.492Z,96048.59
2023-05-10T09:10:23.898Z,96047.56
2023-05-10T09:13:11.646Z,96047.41
2023-05-10T09:16:00.364Z,96034.16
2023-05-10T09:18:50.614Z,96038.59
2023-05-10T09:21:39.426Z,96044.91
2023-05-10T09:24:30.766Z,96040.19
2023-05-10T09:27:16.176Z,96028.06
2023-05-10T09:30:01.760Z,96035.72
2023-05-10T09:32:49.345Z,96028.78
2023-05-10T09:35:34.872Z,96036.03
2023-05-10T09:38:20.547Z,96035.44
2023-05-10T09:41:05.606Z,96028.06
2023-05-10T09:43:51.566Z,96028.44
2023-05-10T09:46:37.964Z,96027.31
2023-05-10T09:49:23.454Z,96017.31
2023-05-10T09:52:09.050Z,96025.13
2023-05-10T09:54:55.043Z,96022.25
2023-05-10T09:57:41.612Z,96018.47
2023-05-10T10:00:28.276Z,96020.91
2023-05-10T10:03:16.320Z,96015.44
2023-05-10T10:06:01.934Z,96017.41
2023-05-10T10:08:47.378Z,96013.63
2023-05-10T10:11:33.800Z,96008.59
2023-05-10T10:14:19.843Z,96005.69
2023-05-10T10:17:08.760Z,95997.81
2023-05-10T10:19:56.045Z,96001.53
2023-05-10T10:22:41.383Z,95992.94
2023-05-10T10:25:26.837Z,95994.34
2023-05-10T10:28:38.170Z,95994.13
2023-05-10T10:31:46.700Z,95994.25
2023-05-10T10:34:33.038Z,95992.72
2023-05-10T10:37:18.516Z,95988.34
2023-05-10T10:40:27.325Z,95994.03
2023-05-10T10:43:26.793Z,95983.25
2023-05-10T10:46:13.359Z,95979.44
2023-05-10T10:49:11.681Z,95980.03
2023-05-10T10:52:21.778Z,95974.69
2023-05-10T10:55:26.004Z,95975.19
2023-05-10T10:58:11.311Z,95961.59
2023-05-10T11:01:12.077Z,95974.94
2023-05-10T11:04:03.571Z,95964.50
2023-05-10T11:06:49.076Z,95965.75
2023-05-10T11:09:41.037Z,95972.72
2023-05-10T11:12:26.517Z,95961.25
2023-05-10T11:15:12.139Z,95962.63
2023-05-10T11:17:57.327Z,95959.72
2023-05-10T11:20:43.041Z,95968.19
2023-05-10T11:23:50.536Z,95965.66
2023-05-10T11:26:36.601Z,95966.56
2023-05-10T11:29:22.182Z,95961.09
2023-05-10T11:32:09.193Z,95959.97
2023-05-10T11:34:54.650Z,95949.75
2023-05-10T11:37:44.329Z,95955.19
2023-05-10T11:40:29.792Z,95961.47
2023-05-10T11:43:15.029Z,95951.13
2023-05-10T11:46:00.646Z,95951.94
2023-05-10T11:48:46.048Z,95945.78
2023-05-10T11:51:35.232Z,95943.69
2023-05-10T11:54:20.704Z,95935.69
2023-05-10T11:57:06.136Z,95946.72
2023-05-10T11:59:56.008Z,95940.19
2023-05-10T12:02:41.716Z,95937.28
2023-05-10T12:05:27.498Z,95931.84
2023-05-10T12:08:14.187Z,95934.50
2023-05-10T12:11:11.444Z,95933.78
2023-05-10T12:13:57.735Z,95932.97
2023-05-10T12:16:44.639Z,95940.47
2023-05-10T12:19:38.238Z,95940.28
2023-05-10T12:22:23.514Z,95934.00
2023-05-10T12:25:10.047Z,95935.16
2023-05-10T12:31:00.852Z,95929.25
2023-05-10T12:33:47.458Z,95934.84
2023-05-10T12:36:32.640Z,95921.94
2023-05-10T12:39:18.039Z,95923.59
2023-05-10T12:42:03.340Z,95921.81
2023-05-10T12:44:48.523Z,95920.78
2023-05-10T12:47:34.406Z,95925.16
2023-05-10T12:50:19.734Z,95918.09
2023-05-10T12:53:05.062Z,95916.19
2023-05-10T12:55:50.304Z,95908.56
2023-05-10T12:58:36.426Z,95910.66
2023-05-10T13:01:21.782Z,95918.97
2023-05-10T13:04:08.304Z,95908.31
2023-05-10T13:06:53.817Z,95911.84
2023-05-10T13:09:39.221Z,95902.47
2023-05-10T13:12:24.764Z,95893.00
2023-05-10T13:15:10.353Z,95881.81
2023-05-10T13:17:56.088Z,95887.38
2023-05-10T13:20:41.667Z,95889.66
2023-05-10T13:23:26.705Z,95874.19
2023-05-10T13:26:12.125Z,95877.06
2023-05-10T13:28:57.386Z,95880.47
2023-05-10T13:31:42.802Z,95870.97
2023-05-10T13:34:28.169Z,95857.16
2023-05-10T13:37:13.539Z,95862.63
2023-05-10T13:39:59.075Z,95858.41
2023-05-10T13:42:44.604Z,95860.09
2023-05-10T13:45:29.856Z,95852.19
2023-05-10T13:48:15.064Z,95854.03
2023-05-10T13:51:00.605Z,95853.59
2023-05-10T13:53:47.984Z,95850.41
2023-05-10T13:56:33.028Z,95851.19
2023-05-10T13:59:18.560Z,95839.75
2023-05-10T14:02:03.787Z,95845.78
2023-05-10T14:04:49.351Z,95841.34
2023-05-10T14:07:34.442Z,95848.66
2023-05-10T14:10:19.724Z,95842.31
2023-05-10T14:13:05.262Z,95840.78
2023-05-10T14:15:50.632Z,95834.66
2023-05-10T14:18:36.151Z,95832.78
2023-05-10T14:21:21.572Z,95834.22
2023-05-10T14:24:08.181Z,95834.75
2023-05-10T14:26:54.938Z,95841.47
2023-05-10T14:29:40.097Z,95842.38
2023-05-10T14:32:25.891Z,95835.75
2023-05-10T14:35:13.180Z,95841.59
2023-05-10T14:37:59.340Z,95841.44
2023-05-10T14:40:44.794Z,95842.84
2023-05-10T14:43:30.209Z,95840.38
2023-05-10T14:46:15.467Z,95836.00
2023-05-10T14:49:00.794Z,95837.34
2023-05-10T14:51:46.666Z,95842.50
2023-05-10T14:54:31.963Z,95832.81
2023-05-10T14:57:17.414Z,95838.22
2023-05-10T15:00:04.592Z,95844.91
2023-05-10T15:02:50.514Z,95832.09
2023-05-10T15:05:38.340Z,95837.91
2023-05-10T15:08:24.779Z,95845.47
2023-05-10T15:11:09.992Z,95839.97
2023-05-10T15:13:55.311Z,95838.66
2023-05-10T15:16:40.664Z,95838.13
2023-05-10T15:19:25.862Z,95836.44
2023-05-10T15:22:11.399Z,95835.69
2023-05-10T15:24:56.876Z,95832.59
2023-05-10T15:27:44.512Z,95830.88
2023-05-10T15:30:29.975Z,95831.19
2023-05-10T15:33:15.028Z,95830.88
2023-05-10T15:36:00.049Z,95831.69
2023-05-10T15:38:45.362Z,95835.59
2023-05-10T15:41:31.121Z,95824.75
2023-05-10T15:44:17.780Z,95826.72
2023-05-10T15:47:03.861Z,95829.41
2023-05-10T15:49:49.087Z,95829.19
2023-05-10T15:52:34.906Z,95827.75
2023-05-10T15:55:20.392Z,95817.03
2023-05-10T15:58:05.579Z,95820.03
2023-05-10T16:00:51.124Z,95819.75
2023-05-10T16:03:37.573Z,95818.72
2023-05-10T16:06:23.343Z,95824.81
2023-05-10T16:09:08.709Z,95821.72
2023-05-10T16:11:54.330Z,95824.72
2023-05-10T16:14:39.518Z,95819.09
2023-05-10T16:17:24.634Z,95819.88
2023-05-10T16:20:10.113Z,95821.38
2023-05-10T16:22:56.006Z,95822.38
2023-05-10T16:25:41.550Z,95816.72
2023-05-10T16:28:26.671Z,95823.03
2023-05-10T16:31:12.105Z,95820.25
2023-05-10T16:33:57.411Z,95818.81
2023-05-10T16:36:42.629Z,95824.69
2023-05-10T16:39:27.648Z,95819.28
2023-05-10T16:42:13.009Z,95817.34
2023-05-10T16:44:58.362Z,95822.41
2023-05-10T16:47:43.719Z,95821.28
2023-05-10T16:50:29.485Z,95818.59
2023-05-10T16:53:14.697Z,95826.28
2023-05-10T16:55:59.888Z,95818.44
2023-05-10T16:58:47.592Z,95824.84
2023-05-10T17:01:34.143Z,95825.34
2023-05-10T17:04:19.305Z,95834.41
2023-05-10T17:07:04.809Z,95841.25
2023-05-10T17:09:50.174Z,95838.59
2023-05-10T17:12:35.736Z,95843.38
2023-05-10T17:15:21.761Z,95841.19
2023-05-10T17:18:07.745Z,95836.59
2023-05-10T17:20:53.151Z,95852.31
2023-05-10T17:23:38.397Z,95846.16
2023-05-10T17:26:23.496Z,95841.38
2023-05-10T17:29:09.023Z,95842.84
2023-05-10T17:31:54.292Z,95852.09
2023-05-10T17:34:39.606Z,95854.16
2023-05-10T17:37:25.098Z,95852.66
2023-05-10T17:40:10.774Z,95861.09
2023-05-10T17:42:55.985Z,95863.03
2023-05-10T17:45:41.450Z,95862.91
2023-05-10T17:48:27.676Z,95865.88
2023-05-10T17:51:12.992Z,95859.47
2023-05-10T17:53:58.160Z,95865.44
2023-05-10T17:56:43.634Z,95869.47
2023-05-10T17:59:28.587Z,95868.16
2023-05-10T18:02:14.123Z,95867.88
2023-05-10T18:05:01.555Z,95877.44
2023-05-10T18:07:47.263Z,95874.38
2023-05-10T18:10:33.274Z,95877.28
2023-05-10T18:13:20.189Z,95890.28
2023-05-10T18:16:06.139Z,95892.84
2023-05-10T18:18:51.689Z,95886.38
2023-05-10T18:21:38.526Z,95893.19
2023-05-10T18:24:37.020Z,95896.31
2023-05-10T18:27:23.931Z,95896.63
2023-05-10T18:30:10.651Z,95905.63
2023-05-10T18:32:56.375Z,95907.69
2023-05-10T18:35:41.868Z,95917.91
2023-05-10T18:38:27.463Z,95917.28
2023-05-10T18:41:14.521Z,95922.53
2023-05-10T18:43:59.763Z,95917.38
2023-05-10T18:46:45.191Z,95921.66
2023-05-10T18:49:32.294Z,95920.22
2023-05-10T18:52:19.208Z,95921.75
2023-05-10T18:55:04.793Z,95926.63
2023-05-10T18:57:49.999Z,95932.84
2023-05-10T19:00:35.355Z,95926.03
2023-05-10T19:03:21.524Z,95927.75
2023-05-10T19:06:06.817Z,95927.47
2023-05-10T19:08:52.634Z,95925.09
2023-05-10T19:11:37.916Z,95932.94
2023-05-10T19:14:24.914Z,95930.56
2023-05-10T19:17:10.464Z,95936.19
2023-05-10T19:19:57.654Z,95930.75
2023-05-10T19:22:54.802Z,95936.09
2023-05-10T19:25:49.984Z,95936.16
2023-05-10T19:28:35.559Z,95938.25
2023-05-10T19:31:21.728Z,95938.28
2023-05-10T19:34:07.318Z,95945.06
2023-05-10T19:36:52.658Z,95942.47
2023-05-10T19:39:37.951Z,95939.19
2023-05-10T19:42:23.287Z,95948.97
2023-05-10T19:45:09.804Z,95949.59
2023-05-10T19:47:55.247Z,95948.00
2023-05-10T19:50:40.594Z,95951.47
2023-05-10T19:53:28.062Z,95948.19
2023-05-10T19:56:14.887Z,95945.56
2023-05-10T19:59:02.522Z,95949.00
2023-05-10T20:01:48.123Z,95954.91
2023-05-10T20:04:34.638Z,95946.97
2023-05-10T20:07:19.799Z,95955.88
2023-05-10T20:10:05.720Z,95961.16
2023-05-10T20:12:52.229Z,95958.03
2023-05-10T20:15:37.969Z,95958.22
2023-05-10T20:18:23.584Z,95960.00
2023-05-10T20:21:08.837Z,95955.53
2023-05-10T20:23:54.262Z,95961.56
2023-05-10T20:26:39.620Z,95958.66
2023-05-10T20:29:25.068Z,95961.28
2023-05-10T20:32:10.340Z,95962.09
2023-05-10T20:34:55.722Z,95968.94
2023-05-10T20:37:41.136Z,95968.47
2023-05-10T20:40:26.437Z,95971.22
2023-05-10T20:43:12.036Z,95972.03
2023-05-10T20:45:57.229Z,95968.50
2023-05-10T20:48:42.630Z,95973.94
2023-05-10T20:51:30.000Z,95978.97
2023-05-10T20:54:14.973Z,95975.09
2023-05-10T20:57:02.070Z,95973.03
2023-05-10T20:59:47.298Z,95975.81
2023-05-10T21:02:32.583Z,95982.22
2023-05-10T21:05:18.827Z,95975.25
2023-05-10T21:08:04.401Z,95982.66
2023-05-10T21:10:49.973Z,95980.34
2023-05-10T21:13:35.402Z,95975.66
2023-05-10T21:16:20.800Z,95983.56
2023-05-10T21:19:07.456Z,95967.75
2023-05-10T21:21:52.746Z,95984.69
2023-05-10T21:24:40.099Z,95975.25
2023-05-10T21:27:25.298Z,95978.25
2023-05-10T21:30:10.782Z,95982.25
2023-05-10T21:32:59.719Z,95976.56
2023-05-10T21:35:45.363Z,95973.06
2023-05-10T21:38:30.304Z,95981.50
2023-05-10T21:41:15.591Z,95971.53
2023-05-10T21:44:00.921Z,95978.72
2023-05-10T21:46:46.269Z,95989.00
2023-05-10T21:49:31.451Z,95983.84
2023-05-10T21:52:16.819Z,95980.31
2023-05-10T21:55:02.262Z,95992.81
2023-05-10T21:57:47.765Z,95982.22
2023-05-10T22:00:34.160Z,95986.00
2023-05-10T22:03:19.926Z,95981.38
2023-05-10T22:06:05.569Z,95978.69
2023-05-10T22:08:50.868Z,95984.03
2023-05-10T22:11:36.108Z,95978.84
2023-05-10T22:14:22.836Z,95981.41
2023-05-10T22:17:08.348Z,95986.56
2023-05-10T22:19:53.748Z,95988.91
2023-05-10T22:22:38.867Z,95991.72
2023-05-10T22:25:24.204Z,95994.91
2023-05-10T22:28:10.127Z,95996.06
2023-05-10T22:30:55.632Z,95996.59
2023-05-10T22:33:41.069Z,96003.03
2023-05-10T22:36:26.425Z,95991.53
2023-05-10T22:39:11.729Z,95997.03
2023-05-10T22:41:56.930Z,96003.66
2023-05-10T22:44:43.270Z,95995.31
2023-05-10T22:47:28.502Z,95994.38
2023-05-10T22:50:14.406Z,96002.78
2023-05-10T22:52:59.577Z,95997.88
2023-05-10T22:55:45.548Z,96010.56
2023-05-10T22:58:31.521Z,96004.84
2023-05-10T23:01:17.080Z,96008.66
2023-05-10T23:04:02.420Z,96000.13
2023-05-10T23:06:47.699Z,96004.44
2023-05-10T23:09:33.181Z,96003.00
2023-05-10T23:12:18.223Z,96007.59
2023-05-10T23:15:03.659Z,96017.66
2023-05-10T23:17:48.759Z,96009.84
2023-05-10T23:20:34.008Z,96009.72
2023-05-10T23:23:19.164Z,96011.69
2023-05-10T23:26:05.298Z,96013.84
2023-05-10T23:28:50.605Z,96017.16
2023-05-10T23:31:37.150Z,96011.78
2023-05-10T23:34:22.646Z,96010.50
2023-05-10T23:37:07.972Z,96012.97
2023-05-10T23:39:53.720Z,96018.53
2023-05-10T23:42:38.967Z,96017.28
2023-05-10T23:45:24.387Z,96017.09
2023-05-10T23:48:09.813Z,96018.88
2023-05-10T23:50:55.304Z,96015.97
2023-05-10T23:53:40.604Z,96028.78
2023-05-10T23:56:26.801Z,96020.63
2023-05-10T23:59:12.242Z,96019.66
